Philadelphia, PA

6:17 AM EDT on April 21, 2015 (GMT -0400)
Northeast Philadelphia | | Change Station
CLOSE
Current Station
Airport
Location: Northeast Philadelphia,
Elevation: 121 ft
Nearby Weather Stations

Elev 121 ft 40.08 °N, 75.01 °W | Updated 10 minutes ago

Rain
Rain
59 °F
Feels Like 59 °F
N
5
Wind Variable Wind from WSW

Today
High -- | Low -- °F
--% Chance of Precip.
Yesterday
High -- | Low -- °F
Precip. -- in
6:13 AM 7:44 PM
Waxing Crescent, 9% visible
Pressure 29.62 in
Visibility 7.0 miles
Clouds Scattered Clouds 800 ft
Mostly Cloudy 6000 ft
Overcast 11000 ft
Dew Point 54 °F
Humidity 83%
Rainfall 0.37 in
Snow Depth Not available.
UV 0 out of 12
Pollen .40 out of 12
Air Quality Not available.
Flu Activity Sporadic
SPECI KPNE 211007Z 24004KT 7SM SCT008 BKN060 OVC110 15/12 A2962 RMK AO2 T01500122

More Conditions Fewer Conditions

Pressure 29.62 in
Visibility 7.0 miles
Clouds Scattered Clouds 800 ft
Mostly Cloudy 6000 ft
Overcast 11000 ft
Dew Point 54 °F
Humidity 83%
Rainfall 0.37 in
Snow Depth Not available.
UV 0 out of 12
Pollen .40 out of 12
Air Quality Not available.
Flu Activity Sporadic
SPECI KPNE 211007Z 24004KT 7SM SCT008 BKN060 OVC110 15/12 A2962 RMK AO2 T01500122

More Conditions Fewer Conditions

Nowcast | as of 5:17 am EDT on April 21, 2015

As we start the morning commute some widely scattered leftover showers will be passing through the area. The downward trend continues and any additional rainfall amounts between 530 am and 730 am should be less than one tenth of an inch.

×

10-Day Weather Forecast

Almanac

Astronomy

Apr. 21, 2015 Rise Set
Actual Time
Civil Twilight
Nautical Twilight
Astronomical Twilight
Moon
Length of Visible Light
Length of Day
Tomorrow will be .
, % of the Moon is Illuminated

Today's Extremes

State Highs State Lows

Community

WunderPhotos

Upload Photos

1,815,337 photos uploaded!

WunderBlogs® & News

Nearby

Air Quality

  Air Quality AQ Index Pollutant
Not available.

Snow Depth

Station Depth Elevation

Earthquake Activity

City Distance Mag. Time & Date
Minimum magnitude displayed is 2.5.

Coastal Water Temperatures

Place Temperature

Stations

Nearby Weather Stations

Station Location Temp. Windchill Dew Point Humidity Wind Precip. Elev Updated Type